Capitol Logistics 435


KSMF
Sacramento International Airport
Sacramento, California, US
KSLC
Salt Lake City International Airport
Salt Lake City, Utah, US

Activity Log

Date Flight Route Aircraft Duration
02/01/2020 CPX435 SCTWN2 MACUS Q124 BVL WAATS5 B738 1h 38m
05/08/2019 CPX435 SCTWN2 MACUS Q124 BVL WAATS5 B752 1h 31m
02/03/2019 CPX435 SCTWN2 MACUS Q124 BVL WAATS5 B752 1h 30m

Route Details

Aircraft Information
Primary: Boeing 757-200SF
Backup: Boeing 737-800BCF
Route Data
Distance: 462nm
Sched. Duration: 1h 30m
Avg. Duration: 1h 33m (+3m)
Times Flown: 3
Recm'd Route: SCTWN2 MACUS Q124 BVL WAATS5
Planned Altitude: 37,000ft
Origin Wx: KSMF 271653Z 32003KT 10SM CLR 12/06 A3027 RMK AO2 SLP251 T01170061 PNO $
Dest. Wx: KSLC 271654Z 00000KT 10SM FEW160 FEW220 04/M07 A3045 RMK AO2 SLP313 T00391072 $
Notes:

Financial History
Total Freight: 146,726lbs
Average Load: 48,909lbs/flt
Fuel Used: 31,328lbs
Avg. Fuel Used: 10,443lbs/flt
Fuel Expense: $34,148
Avg. Fuel Expense: $11,383
Avg. Fuel Cost: $1.09/lbs
Total Gross Income: $192,726
Pilot Pay: $557
Total Expenses: $20,970
Total Revenue: $136,749
Average Revenue: $64,241.85